Search for airport 
image banner adimage banner adimage banner ad
image banner ad

99NV - Mesa View Rgnl Hospital

Located in Mesquite, United States

ICAO - 99NV, IATA -

Data provided by Airmate  

General information

Coordinates: N36°48'36" W114°7'1"
Elevation is 1656 feet MSL.
 
View others Airports in Nevada

Operational data

Special qualification required
Current time UTC:
Current local time:
Weather at : KSGU - St George Rgnl ( 59 km )
METAR: KSGU 092156Z AUTO VRB05G16KT 10SM CLR 26/M10 A2982 RMK AO2 SLP069 T02611100
TAF: KSGU 091740Z 0918/1018 VRB05KT P6SM FEW200 FM092000 28010KT P6SM SCT200 FM100300 VRB05KT P6SM SCT200
View NOTAMs / SUP AIP / TFR affecting this airport [VIEW]
Communications frequencies: [VIEW]

Runways:

Airport contact information

Address: Mesquite United States

Satellite view of 99NV